PWSweather.com
Personal Weather Stations
Station Observations
KNJOAKLA6
Oakland, NJ 07436

Oakland, NJ 07436

Lat: 41.041, Lon: -74.231

Elevation: 280

Station Type: Davis VP 2

http://stratacolorado.com/oaknjwx/

High Low Average
Temperature 40.9°F4.9°C 26.5°F-3.1°C 33.5°F0.8°C
Dew Point 29.2°F-1.6°C 12.1°F-11.1°C 21.0°F-6.1°C
Winds 8.0 mph 12.9 kmh Calm Calm 2.0 mph WSW3.2 kmh WSW
Wind Gusts 20.0 mph32.2 kmh -- 9.0 mph14.5 kmh
Humidity 80% 40% 61%
Pressure 29.99 in1015.6 mb 29.47 in998.0 mb -
Precipitation 0.27 in6.9 mm - -
Hour Temp Dew Point Humidity Winds Wind Gusts Pressure Precip Precip Rate Daily Precip Total
12:00 AM 32.8°F0.4°C 26.4°F-3.1°C 77% 3.0 mph SW4.8 kmh SW 7.0 mph11.3 kmh 29.47 in998.0 mb 0.00 in0.0 mm 0.00 in/hr0.0 mm/hr 0.27 in6.9 mm
12:10 AM 32.7°F0.4°C 26.3°F-3.2°C 77% Calm Calm 7.0 mph11.3 kmh 29.47 in998.0 mb 0.00 in0.0 mm 0.00 in/hr0.0 mm/hr 0.00 in0.0 mm
12:20 AM 32.8°F0.4°C 26.4°F-3.1°C 77% 3.0 mph WSW4.8 kmh WSW 11.0 mph17.7 kmh 29.47 in998.0 mb 0.00 in0.0 mm 0.00 in/hr0.0 mm/hr 0.00 in0.0 mm
12:30 AM 32.9°F0.5°C 26.5°F-3.1°C 77% 7.0 mph SW11.3 kmh SW 12.0 mph19.3 kmh 29.48 in998.3 mb 0.00 in0.0 mm 0.00 in/hr0.0 mm/hr 0.00 in0.0 mm
12:40 AM 33.0°F0.6°C 26.6°F-3.0°C 77% 3.0 mph NW4.8 kmh NW 9.0 mph14.5 kmh 29.48 in998.3 mb 0.00 in0.0 mm 0.00 in/hr0.0 mm/hr 0.00 in0.0 mm
12:50 AM 33.1°F0.6°C 26.7°F-2.9°C 77% Calm Calm 6.0 mph9.7 kmh 29.49 in998.6 mb 0.00 in0.0 mm 0.00 in/hr0.0 mm/hr 0.00 in0.0 mm
01:00 AM 33.2°F0.7°C 26.8°F-2.9°C 77% 1.0 mph SW1.6 kmh SW 6.0 mph9.7 kmh 29.49 in998.6 mb 0.00 in0.0 mm 0.00 in/hr0.0 mm/hr 0.00 in0.0 mm
01:10 AM 33.3°F0.7°C 26.9°F-2.8°C 77% 1.0 mph W1.6 kmh W 5.0 mph8.0 kmh 29.49 in998.6 mb 0.00 in0.0 mm 0.00 in/hr0.0 mm/hr 0.00 in0.0 mm
01:20 AM 33.4°F0.8°C 27.0°F-2.8°C 77% 3.0 mph W4.8 kmh W 11.0 mph17.7 kmh 29.49 in998.6 mb 0.00 in0.0 mm 0.00 in/hr0.0 mm/hr 0.00 in0.0 mm
01:30 AM 33.5°F0.8°C 27.1°F-2.7°C 77% 1.0 mph WSW1.6 kmh WSW 6.0 mph9.7 kmh 29.50 in999.0 mb 0.00 in0.0 mm 0.00 in/hr0.0 mm/hr 0.00 in0.0 mm
01:40 AM 33.5°F0.8°C 27.1°F-2.7°C 77% 2.0 mph W3.2 kmh W 16.0 mph25.7 kmh 29.51 in999.3 mb 0.00 in0.0 mm 0.00 in/hr0.0 mm/hr 0.00 in0.0 mm
01:50 AM 33.7°F0.9°C 27.3°F-2.6°C 77% 4.0 mph W6.4 kmh W 11.0 mph17.7 kmh 29.51 in999.3 mb 0.00 in0.0 mm 0.00 in/hr0.0 mm/hr 0.00 in0.0 mm
02:00 AM 33.8°F1.0°C 27.4°F-2.6°C 77% 3.0 mph SW4.8 kmh SW 13.0 mph20.9 kmh 29.51 in999.3 mb 0.00 in0.0 mm 0.00 in/hr0.0 mm/hr 0.00 in0.0 mm
02:10 AM 33.8°F1.0°C 27.0°F-2.8°C 76% 3.0 mph WSW4.8 kmh WSW 11.0 mph17.7 kmh 29.52 in999.7 mb 0.00 in0.0 mm 0.00 in/hr0.0 mm/hr 0.00 in0.0 mm
02:20 AM 33.8°F1.0°C 27.0°F-2.8°C 76% 2.0 mph WSW3.2 kmh WSW 9.0 mph14.5 kmh 29.53 in1000.0 mb 0.00 in0.0 mm 0.00 in/hr0.0 mm/hr 0.00 in0.0 mm
02:30 AM 33.6°F0.9°C 26.8°F-2.9°C 76% Calm Calm 6.0 mph9.7 kmh 29.53 in1000.0 mb 0.00 in0.0 mm 0.00 in/hr0.0 mm/hr 0.00 in0.0 mm
02:40 AM 33.4°F0.8°C 27.0°F-2.8°C 77% 2.0 mph WSW3.2 kmh WSW 7.0 mph11.3 kmh 29.54 in1000.3 mb 0.00 in0.0 mm 0.00 in/hr0.0 mm/hr 0.00 in0.0 mm
02:50 AM 33.3°F0.7°C 26.9°F-2.8°C 77% Calm Calm 6.0 mph9.7 kmh 29.54 in1000.3 mb 0.00 in0.0 mm 0.00 in/hr0.0 mm/hr 0.00 in0.0 mm
03:00 AM 33.2°F0.7°C 26.8°F-2.9°C 77% 3.0 mph SW4.8 kmh SW 7.0 mph11.3 kmh 29.54 in1000.3 mb 0.00 in0.0 mm 0.00 in/hr0.0 mm/hr 0.00 in0.0 mm
03:10 AM 33.0°F0.6°C 26.9°F-2.8°C 78% 2.0 mph SW3.2 kmh SW 9.0 mph14.5 kmh 29.54 in1000.3 mb 0.00 in0.0 mm 0.00 in/hr0.0 mm/hr 0.00 in0.0 mm
03:20 AM 33.0°F0.6°C 26.9°F-2.8°C 78% 4.0 mph SW6.4 kmh SW 13.0 mph20.9 kmh 29.55 in1000.7 mb 0.00 in0.0 mm 0.00 in/hr0.0 mm/hr 0.00 in0.0 mm
03:30 AM 33.0°F0.6°C 26.9°F-2.8°C 78% 3.0 mph SW4.8 kmh SW 9.0 mph14.5 kmh 29.55 in1000.7 mb 0.00 in0.0 mm 0.00 in/hr0.0 mm/hr 0.00 in0.0 mm
03:40 AM 33.1°F0.6°C 27.0°F-2.8°C 78% 2.0 mph WSW3.2 kmh WSW 10.0 mph16.1 kmh 29.55 in1000.7 mb 0.00 in0.0 mm 0.00 in/hr0.0 mm/hr 0.00 in0.0 mm
03:50 AM 33.2°F0.7°C 27.1°F-2.7°C 78% 4.0 mph WSW6.4 kmh WSW 10.0 mph16.1 kmh 29.56 in1001.0 mb 0.00 in0.0 mm 0.00 in/hr0.0 mm/hr 0.00 in0.0 mm
04:00 AM 33.2°F0.7°C 27.1°F-2.7°C 78% 3.0 mph SW4.8 kmh SW 12.0 mph19.3 kmh 29.56 in1001.0 mb 0.00 in0.0 mm 0.00 in/hr0.0 mm/hr 0.00 in0.0 mm
04:10 AM 33.2°F0.7°C 26.8°F-2.9°C 77% 2.0 mph WSW3.2 kmh WSW 13.0 mph20.9 kmh 29.56 in1001.0 mb 0.00 in0.0 mm 0.00 in/hr0.0 mm/hr 0.00 in0.0 mm
04:20 AM 33.0°F0.6°C 26.6°F-3.0°C 77% 2.0 mph SW3.2 kmh SW 9.0 mph14.5 kmh 29.57 in1001.4 mb 0.00 in0.0 mm 0.00 in/hr0.0 mm/hr 0.00 in0.0 mm
04:30 AM 32.8°F0.4°C 26.4°F-3.1°C 77% 4.0 mph SSW6.4 kmh SSW 11.0 mph17.7 kmh 29.57 in1001.4 mb 0.00 in0.0 mm 0.00 in/hr0.0 mm/hr 0.00 in0.0 mm
04:40 AM 32.5°F0.3°C 26.1°F-3.3°C 77% 3.0 mph SW4.8 kmh SW 6.0 mph9.7 kmh 29.57 in1001.4 mb 0.00 in0.0 mm 0.00 in/hr0.0 mm/hr 0.00 in0.0 mm
04:50 AM 32.3°F0.2°C 26.2°F-3.2°C 78% 2.0 mph SW3.2 kmh SW 5.0 mph8.0 kmh 29.57 in1001.4 mb 0.00 in0.0 mm 0.00 in/hr0.0 mm/hr 0.00 in0.0 mm
05:00 AM 32.1°F0.1°C 26.3°F-3.2°C 79% 3.0 mph WSW4.8 kmh WSW 7.0 mph11.3 kmh 29.58 in1001.7 mb 0.00 in0.0 mm 0.00 in/hr0.0 mm/hr 0.00 in0.0 mm
05:10 AM 31.9°F-0.1°C 26.1°F-3.3°C 79% 2.0 mph SW3.2 kmh SW 10.0 mph16.1 kmh 29.58 in1001.7 mb 0.00 in0.0 mm 0.00 in/hr0.0 mm/hr 0.00 in0.0 mm
05:20 AM 31.9°F-0.1°C 26.4°F-3.1°C 80% 2.0 mph SW3.2 kmh SW 12.0 mph19.3 kmh 29.58 in1001.7 mb 0.00 in0.0 mm 0.00 in/hr0.0 mm/hr 0.00 in0.0 mm
05:30 AM 31.9°F-0.1°C 26.4°F-3.1°C 80% 4.0 mph SW6.4 kmh SW 10.0 mph16.1 kmh 29.59 in1002.0 mb 0.00 in0.0 mm 0.00 in/hr0.0 mm/hr 0.00 in0.0 mm
05:40 AM 32.0°F0.0°C 26.2°F-3.2°C 79% 3.0 mph SW4.8 kmh SW 13.0 mph20.9 kmh 29.58 in1001.7 mb 0.00 in0.0 mm 0.00 in/hr0.0 mm/hr 0.00 in0.0 mm
05:50 AM 32.3°F0.2°C 26.5°F-3.1°C 79% 4.0 mph SW6.4 kmh SW 12.0 mph19.3 kmh 29.59 in1002.0 mb 0.00 in0.0 mm 0.00 in/hr0.0 mm/hr 0.00 in0.0 mm
06:00 AM 32.6°F0.3°C 26.8°F-2.9°C 79% 4.0 mph SW6.4 kmh SW 12.0 mph19.3 kmh 29.59 in1002.0 mb 0.00 in0.0 mm 0.00 in/hr0.0 mm/hr 0.00 in0.0 mm
06:10 AM 32.8°F0.4°C 27.0°F-2.8°C 79% 1.0 mph SW1.6 kmh SW 11.0 mph17.7 kmh 29.60 in1002.4 mb 0.00 in0.0 mm 0.00 in/hr0.0 mm/hr 0.00 in0.0 mm
06:20 AM 32.8°F0.4°C 27.0°F-2.8°C 79% 4.0 mph SW6.4 kmh SW 7.0 mph11.3 kmh 29.60 in1002.4 mb 0.00 in0.0 mm 0.00 in/hr0.0 mm/hr 0.00 in0.0 mm
06:30 AM 32.9°F0.5°C 27.1°F-2.7°C 79% 3.0 mph SW4.8 kmh SW 9.0 mph14.5 kmh 29.60 in1002.4 mb 0.00 in0.0 mm 0.00 in/hr0.0 mm/hr 0.00 in0.0 mm
06:40 AM 33.0°F0.6°C 27.2°F-2.7°C 79% 1.0 mph S1.6 kmh S 10.0 mph16.1 kmh 29.61 in1002.7 mb 0.00 in0.0 mm 0.00 in/hr0.0 mm/hr 0.00 in0.0 mm
06:50 AM 33.1°F0.6°C 27.3°F-2.6°C 79% 4.0 mph SW6.4 kmh SW 11.0 mph17.7 kmh 29.61 in1002.7 mb 0.00 in0.0 mm 0.00 in/hr0.0 mm/hr 0.00 in0.0 mm
07:00 AM 33.2°F0.7°C 27.4°F-2.6°C 79% 2.0 mph WSW3.2 kmh WSW 10.0 mph16.1 kmh 29.62 in1003.0 mb 0.00 in0.0 mm 0.00 in/hr0.0 mm/hr 0.00 in0.0 mm
07:10 AM 33.3°F0.7°C 27.2°F-2.7°C 78% 4.0 mph SW6.4 kmh SW 13.0 mph20.9 kmh 29.63 in1003.4 mb 0.00 in0.0 mm 0.00 in/hr0.0 mm/hr 0.00 in0.0 mm
07:20 AM 33.2°F0.7°C 27.1°F-2.7°C 78% 4.0 mph SW6.4 kmh SW 13.0 mph20.9 kmh 29.63 in1003.4 mb 0.00 in0.0 mm 0.00 in/hr0.0 mm/hr 0.00 in0.0 mm
07:30 AM 33.0°F0.6°C 27.2°F-2.7°C 79% 4.0 mph SW6.4 kmh SW 15.0 mph24.1 kmh 29.64 in1003.7 mb 0.00 in0.0 mm 0.00 in/hr0.0 mm/hr 0.00 in0.0 mm
07:40 AM 32.9°F0.5°C 27.1°F-2.7°C 79% 7.0 mph SW11.3 kmh SW 14.0 mph22.5 kmh 29.65 in1004.1 mb 0.00 in0.0 mm 0.00 in/hr0.0 mm/hr 0.00 in0.0 mm
07:50 AM 33.0°F0.6°C 27.2°F-2.7°C 79% 3.0 mph SW4.8 kmh SW 11.0 mph17.7 kmh 29.65 in1004.1 mb 0.00 in0.0 mm 0.00 in/hr0.0 mm/hr 0.00 in0.0 mm
08:00 AM 33.1°F0.6°C 27.6°F-2.4°C 80% 5.0 mph SW8.0 kmh SW 10.0 mph16.1 kmh 29.66 in1004.4 mb 0.00 in0.0 mm 0.00 in/hr0.0 mm/hr 0.00 in0.0 mm
08:10 AM 33.2°F0.7°C 27.7°F-2.4°C 80% 2.0 mph SW3.2 kmh SW 8.0 mph12.9 kmh 29.66 in1004.4 mb 0.00 in0.0 mm 0.00 in/hr0.0 mm/hr 0.00 in0.0 mm
08:20 AM 33.4°F0.8°C 27.9°F-2.3°C 80% 3.0 mph SW4.8 kmh SW 9.0 mph14.5 kmh 29.67 in1004.7 mb 0.00 in0.0 mm 0.00 in/hr0.0 mm/hr 0.00 in0.0 mm
08:30 AM 33.8°F1.0°C 28.3°F-2.1°C 80% 4.0 mph WSW6.4 kmh WSW 10.0 mph16.1 kmh 29.67 in1004.7 mb 0.00 in0.0 mm 0.00 in/hr0.0 mm/hr 0.00 in0.0 mm
08:40 AM 34.4°F1.3°C 28.6°F-1.9°C 79% 2.0 mph SW3.2 kmh SW 12.0 mph19.3 kmh 29.67 in1004.7 mb 0.00 in0.0 mm 0.00 in/hr0.0 mm/hr 0.00 in0.0 mm
08:50 AM 35.1°F1.7°C 29.2°F-1.6°C 79% 1.0 mph SSW1.6 kmh SSW 7.0 mph11.3 kmh 29.68 in1005.1 mb 0.00 in0.0 mm 0.00 in/hr0.0 mm/hr 0.00 in0.0 mm
09:00 AM 35.9°F2.2°C 29.1°F-1.6°C 76% 3.0 mph SW4.8 kmh SW 13.0 mph20.9 kmh 29.68 in1005.1 mb 0.00 in0.0 mm 0.00 in/hr0.0 mm/hr 0.00 in0.0 mm
09:10 AM 36.7°F2.6°C 27.8°F-2.3°C 70% 5.0 mph NW8.0 kmh NW 15.0 mph24.1 kmh 29.69 in1005.4 mb 0.00 in0.0 mm 0.00 in/hr0.0 mm/hr 0.00 in0.0 mm
09:20 AM 37.3°F2.9°C 27.4°F-2.6°C 67% 4.0 mph WNW6.4 kmh WNW 14.0 mph22.5 kmh 29.69 in1005.4 mb 0.01 in0.3 mm 0.06 in/hr1.5 mm/hr 0.01 in0.3 mm
09:30 AM 37.9°F3.3°C 27.2°F-2.7°C 65% 5.0 mph WNW8.0 kmh WNW 15.0 mph24.1 kmh 29.69 in1005.4 mb 0.01 in0.3 mm 0.00 in/hr0.0 mm/hr 0.01 in0.3 mm
09:40 AM 38.0°F3.3°C 25.4°F-3.7°C 60% 7.0 mph NW11.3 kmh NW 18.0 mph29.0 kmh 29.70 in1005.8 mb 0.01 in0.3 mm 0.00 in/hr0.0 mm/hr 0.01 in0.3 mm
09:50 AM 38.3°F3.5°C 24.8°F-4.0°C 58% 4.0 mph WSW6.4 kmh WSW 19.0 mph30.6 kmh 29.70 in1005.8 mb 0.01 in0.3 mm 0.00 in/hr0.0 mm/hr 0.01 in0.3 mm
10:00 AM 38.5°F3.6°C 24.6°F-4.1°C 57% 7.0 mph WNW11.3 kmh WNW 16.0 mph25.7 kmh 29.72 in1006.4 mb 0.02 in0.5 mm 0.01 in/hr0.3 mm/hr 0.02 in0.5 mm
10:10 AM 38.6°F3.7°C 23.8°F-4.6°C 55% 3.0 mph NNW4.8 kmh NNW 19.0 mph30.6 kmh 29.72 in1006.4 mb 0.02 in0.5 mm 0.00 in/hr0.0 mm/hr 0.02 in0.5 mm
10:20 AM 38.9°F3.8°C 24.5°F-4.2°C 56% 4.0 mph NNW6.4 kmh NNW 14.0 mph22.5 kmh 29.72 in1006.4 mb 0.02 in0.5 mm 0.00 in/hr0.0 mm/hr 0.03 in0.8 mm
10:30 AM 39.2°F4.0°C 23.0°F-5.0°C 52% 4.0 mph NW6.4 kmh NW 20.0 mph32.2 kmh 29.73 in1006.8 mb 0.03 in0.8 mm 0.06 in/hr1.5 mm/hr 0.04 in1.0 mm
10:40 AM 39.3°F4.1°C 22.2°F-5.4°C 50% 3.0 mph NW4.8 kmh NW 14.0 mph22.5 kmh 29.73 in1006.8 mb 0.04 in1.0 mm 0.06 in/hr1.5 mm/hr 0.05 in1.3 mm
10:50 AM 39.3°F4.1°C 21.7°F-5.7°C 49% 3.0 mph NW4.8 kmh NW 11.0 mph17.7 kmh 29.73 in1006.8 mb 0.05 in1.3 mm 0.06 in/hr1.5 mm/hr 0.06 in1.5 mm
11:00 AM 39.3°F4.1°C 21.7°F-5.7°C 49% 6.0 mph NW9.7 kmh NW 17.0 mph27.4 kmh 29.72 in1006.4 mb 0.04 in1.0 mm 0.00 in/hr0.0 mm/hr 0.06 in1.5 mm
11:10 AM 39.4°F4.1°C 21.3°F-5.9°C 48% 5.0 mph NW8.0 kmh NW 13.0 mph20.9 kmh 29.72 in1006.4 mb 0.05 in1.3 mm 0.06 in/hr1.5 mm/hr 0.07 in1.8 mm
11:20 AM 39.2°F4.0°C 20.2°F-6.6°C 46% 4.0 mph NW6.4 kmh NW 16.0 mph25.7 kmh 29.73 in1006.8 mb 0.05 in1.3 mm 0.00 in/hr0.0 mm/hr 0.08 in2.0 mm
11:30 AM 39.0°F3.9°C 19.5°F-6.9°C 45% 6.0 mph W9.7 kmh W 18.0 mph29.0 kmh 29.73 in1006.8 mb 0.04 in1.0 mm 0.00 in/hr0.0 mm/hr 0.08 in2.0 mm
11:40 AM 38.6°F3.7°C 19.6°F-6.9°C 46% 5.0 mph NW8.0 kmh NW 13.0 mph20.9 kmh 29.73 in1006.8 mb 0.03 in0.8 mm 0.00 in/hr0.0 mm/hr 0.08 in2.0 mm
11:50 AM 38.7°F3.7°C 20.2°F-6.6°C 47% 8.0 mph W12.9 kmh W 17.0 mph27.4 kmh 29.74 in1007.1 mb 0.03 in0.8 mm 0.00 in/hr0.0 mm/hr 0.09 in2.3 mm
12:00 PM 38.4°F3.6°C 20.4°F-6.4°C 48% 3.0 mph WSW4.8 kmh WSW 13.0 mph20.9 kmh 29.74 in1007.1 mb 0.02 in0.5 mm 0.00 in/hr0.0 mm/hr 0.09 in2.3 mm
12:10 PM 38.9°F3.8°C 21.8°F-5.7°C 50% 5.0 mph WNW8.0 kmh WNW 12.0 mph19.3 kmh 29.75 in1007.5 mb 0.03 in0.8 mm 0.06 in/hr1.5 mm/hr 0.10 in2.5 mm
12:20 PM 39.2°F4.0°C 20.7°F-6.3°C 47% 5.0 mph NW8.0 kmh NW 17.0 mph27.4 kmh 29.76 in1007.8 mb 0.02 in0.5 mm 0.00 in/hr0.0 mm/hr 0.10 in2.5 mm
12:30 PM 39.9°F4.4°C 20.8°F-6.2°C 46% 4.0 mph WNW6.4 kmh WNW 15.0 mph24.1 kmh 29.76 in1007.8 mb 0.03 in0.8 mm 0.06 in/hr1.5 mm/hr 0.11 in2.8 mm
12:40 PM 40.5°F4.7°C 20.3°F-6.5°C 44% 5.0 mph NNW8.0 kmh NNW 11.0 mph17.7 kmh 29.76 in1007.8 mb 0.04 in1.0 mm 0.06 in/hr1.5 mm/hr 0.12 in3.0 mm
12:50 PM 40.5°F4.7°C 20.3°F-6.5°C 44% 6.0 mph NW9.7 kmh NW 17.0 mph27.4 kmh 29.76 in1007.8 mb 0.03 in0.8 mm 0.00 in/hr0.0 mm/hr 0.12 in3.0 mm
01:00 PM 40.6°F4.8°C 20.9°F-6.2°C 45% 4.0 mph N6.4 kmh N 12.0 mph19.3 kmh 29.77 in1008.1 mb 0.04 in1.0 mm 0.01 in/hr0.3 mm/hr 0.13 in3.3 mm
01:10 PM 40.9°F4.9°C 21.2°F-6.0°C 45% 3.0 mph NNW4.8 kmh NNW 6.0 mph9.7 kmh 29.77 in1008.1 mb 0.04 in1.0 mm 0.00 in/hr0.0 mm/hr 0.14 in3.6 mm
01:20 PM 40.6°F4.8°C 19.8°F-6.8°C 43% 5.0 mph NNW8.0 kmh NNW 14.0 mph22.5 kmh 29.76 in1007.8 mb 0.05 in1.3 mm 0.06 in/hr1.5 mm/hr 0.15 in3.8 mm
01:30 PM 40.0°F4.4°C 19.8°F-6.8°C 44% 5.0 mph NW8.0 kmh NW 13.0 mph20.9 kmh 29.77 in1008.1 mb 0.05 in1.3 mm 0.00 in/hr0.0 mm/hr 0.16 in4.1 mm
01:40 PM 39.7°F4.3°C 19.6°F-6.9°C 44% 5.0 mph NW8.0 kmh NW 11.0 mph17.7 kmh 29.76 in1007.8 mb 0.04 in1.0 mm 0.00 in/hr0.0 mm/hr 0.16 in4.1 mm
01:50 PM 39.6°F4.2°C 20.0°F-6.7°C 45% 3.0 mph NNW4.8 kmh NNW 9.0 mph14.5 kmh 29.76 in1007.8 mb 0.04 in1.0 mm 0.00 in/hr0.0 mm/hr 0.16 in4.1 mm
02:00 PM 39.4°F4.1°C 20.3°F-6.5°C 46% 1.0 mph N1.6 kmh N 6.0 mph9.7 kmh 29.76 in1007.8 mb 0.03 in0.8 mm 0.00 in/hr0.0 mm/hr 0.17 in4.3 mm
02:10 PM 39.2°F4.0°C 20.2°F-6.6°C 46% 5.0 mph NNW8.0 kmh NNW 9.0 mph14.5 kmh 29.76 in1007.8 mb 0.03 in0.8 mm 0.00 in/hr0.0 mm/hr 0.17 in4.3 mm
02:20 PM 38.8°F3.8°C 18.7°F-7.4°C 44% 4.0 mph NW6.4 kmh NW 9.0 mph14.5 kmh 29.76 in1007.8 mb 0.02 in0.5 mm 0.00 in/hr0.0 mm/hr 0.17 in4.3 mm
02:30 PM 38.4°F3.6°C 18.4°F-7.6°C 44% 3.0 mph NNW4.8 kmh NNW 6.0 mph9.7 kmh 29.77 in1008.1 mb 0.01 in0.3 mm 0.00 in/hr0.0 mm/hr 0.17 in4.3 mm
02:40 PM 38.2°F3.4°C 17.1°F-8.3°C 42% 5.0 mph W8.0 kmh W 15.0 mph24.1 kmh 29.77 in1008.1 mb 0.02 in0.5 mm 0.06 in/hr1.5 mm/hr 0.18 in4.6 mm
02:50 PM 37.8°F3.2°C 16.8°F-8.4°C 42% 4.0 mph W6.4 kmh W 11.0 mph17.7 kmh 29.78 in1008.5 mb 0.02 in0.5 mm 0.00 in/hr0.0 mm/hr 0.18 in4.6 mm
03:00 PM 37.5°F3.1°C 17.0°F-8.3°C 43% 2.0 mph N3.2 kmh N 14.0 mph22.5 kmh 29.79 in1008.8 mb 0.01 in0.3 mm 0.00 in/hr0.0 mm/hr 0.18 in4.6 mm
03:10 PM 37.5°F3.1°C 15.4°F-9.2°C 40% 4.0 mph N6.4 kmh N 10.0 mph16.1 kmh 29.79 in1008.8 mb 0.01 in0.3 mm 0.00 in/hr0.0 mm/hr 0.18 in4.6 mm
03:20 PM 37.4°F3.0°C 15.3°F-9.3°C 40% 5.0 mph NW8.0 kmh NW 11.0 mph17.7 kmh 29.79 in1008.8 mb 0.01 in0.3 mm 0.00 in/hr0.0 mm/hr 0.18 in4.6 mm
03:30 PM 37.0°F2.8°C 14.9°F-9.5°C 40% 2.0 mph WNW3.2 kmh WNW 10.0 mph16.1 kmh 29.80 in1009.1 mb 0.01 in0.3 mm 0.00 in/hr0.0 mm/hr 0.18 in4.6 mm
03:40 PM 36.8°F2.7°C 15.3°F-9.3°C 41% Calm Calm 10.0 mph16.1 kmh 29.80 in1009.1 mb 0.01 in0.3 mm 0.00 in/hr0.0 mm/hr 0.19 in4.8 mm
04:00 PM 36.3°F2.4°C 14.3°F-9.8°C 40% Calm Calm 4.0 mph6.4 kmh 29.80 in1009.1 mb 0.01 in0.3 mm 0.00 in/hr0.0 mm/hr 0.19 in4.8 mm
04:10 PM 36.1°F2.3°C 14.1°F-9.9°C 40% 3.0 mph NNW4.8 kmh NNW 7.0 mph11.3 kmh 29.81 in1009.5 mb 0.01 in0.3 mm 0.00 in/hr0.0 mm/hr 0.19 in4.8 mm
04:20 PM 35.5°F1.9°C 14.1°F-9.9°C 41% 1.0 mph N1.6 kmh N 15.0 mph24.1 kmh 29.81 in1009.5 mb 0.01 in0.3 mm 0.00 in/hr0.0 mm/hr 0.19 in4.8 mm
04:30 PM 35.1°F1.7°C 13.8°F-10.1°C 41% 1.0 mph NE1.6 kmh NE 11.0 mph17.7 kmh 29.81 in1009.5 mb 0.01 in0.3 mm 0.00 in/hr0.0 mm/hr 0.19 in4.8 mm
04:40 PM 34.8°F1.6°C 12.9°F-10.6°C 40% 3.0 mph NNW4.8 kmh NNW 5.0 mph8.0 kmh 29.82 in1009.8 mb 0.00 in0.0 mm 0.00 in/hr0.0 mm/hr 0.19 in4.8 mm
04:50 PM 34.4°F1.3°C 13.7°F-10.2°C 42% 3.0 mph NNW4.8 kmh NNW 10.0 mph16.1 kmh 29.82 in1009.8 mb 0.00 in0.0 mm 0.00 in/hr0.0 mm/hr 0.19 in4.8 mm
05:00 PM 34.0°F1.1°C 13.3°F-10.4°C 42% 2.0 mph NNW3.2 kmh NNW 10.0 mph16.1 kmh 29.83 in1010.2 mb 0.00 in0.0 mm 0.00 in/hr0.0 mm/hr 0.19 in4.8 mm
05:10 PM 33.6°F0.9°C 14.5°F-9.7°C 45% Calm Calm 2.0 mph3.2 kmh 29.84 in1010.5 mb 0.00 in0.0 mm 0.00 in/hr0.0 mm/hr 0.19 in4.8 mm
05:20 PM 33.0°F0.6°C 14.0°F-10.0°C 45% 1.0 mph N1.6 kmh N 4.0 mph6.4 kmh 29.85 in1010.8 mb 0.00 in0.0 mm 0.00 in/hr0.0 mm/hr 0.19 in4.8 mm
05:30 PM 32.4°F0.2°C 13.4°F-10.3°C 45% Calm Calm 4.0 mph6.4 kmh 29.85 in1010.8 mb 0.00 in0.0 mm 0.00 in/hr0.0 mm/hr 0.19 in4.8 mm
05:40 PM 31.9°F-0.1°C 12.4°F-10.9°C 44% 1.0 mph NW1.6 kmh NW 3.0 mph4.8 kmh 29.85 in1010.8 mb 0.00 in0.0 mm 0.00 in/hr0.0 mm/hr 0.19 in4.8 mm
05:49 PM 31.5°F-0.3°C 13.1°F-10.5°C 46% Calm Calm 1.0 mph1.6 kmh 29.87 in1011.5 mb 0.00 in0.0 mm 0.00 in/hr0.0 mm/hr 0.19 in4.8 mm
06:00 PM 31.4°F-0.3°C 14.0°F-10.0°C 48% Calm Calm 4.0 mph6.4 kmh 29.87 in1011.5 mb 0.00 in0.0 mm 0.00 in/hr0.0 mm/hr 0.19 in4.8 mm
06:10 PM 31.1°F-0.5°C 15.1°F-9.4°C 51% Calm Calm 1.0 mph1.6 kmh 29.87 in1011.5 mb 0.00 in0.0 mm 0.00 in/hr0.0 mm/hr 0.19 in4.8 mm
06:20 PM 30.7°F-0.7°C 14.3°F-9.8°C 50% Calm Calm -- 29.88 in1011.9 mb 0.00 in0.0 mm 0.00 in/hr0.0 mm/hr 0.19 in4.8 mm
06:30 PM 30.3°F-0.9°C 14.8°F-9.6°C 52% Calm Calm -- 29.89 in1012.2 mb 0.00 in0.0 mm 0.00 in/hr0.0 mm/hr 0.19 in4.8 mm
06:40 PM 29.8°F-1.2°C 15.6°F-9.1°C 55% Calm Calm -- 29.89 in1012.2 mb 0.00 in0.0 mm 0.00 in/hr0.0 mm/hr 0.19 in4.8 mm
06:50 PM 29.4°F-1.4°C 16.4°F-8.7°C 58% Calm Calm 3.0 mph4.8 kmh 29.90 in1012.5 mb 0.00 in0.0 mm 0.00 in/hr0.0 mm/hr 0.19 in4.8 mm
07:00 PM 28.7°F-1.8°C 14.6°F-9.7°C 55% 3.0 mph NNW4.8 kmh NNW 6.0 mph9.7 kmh 29.91 in1012.9 mb 0.00 in0.0 mm 0.00 in/hr0.0 mm/hr 0.19 in4.8 mm
07:10 PM 28.5°F-1.9°C 16.0°F-8.9°C 59% 1.0 mph NW1.6 kmh NW 4.0 mph6.4 kmh 29.92 in1013.2 mb 0.00 in0.0 mm 0.00 in/hr0.0 mm/hr 0.19 in4.8 mm
07:20 PM 28.4°F-2.0°C 15.9°F-8.9°C 59% Calm Calm 4.0 mph6.4 kmh 29.92 in1013.2 mb 0.00 in0.0 mm 0.00 in/hr0.0 mm/hr 0.19 in4.8 mm
07:30 PM 28.2°F-2.1°C 14.9°F-9.5°C 57% Calm Calm 1.0 mph1.6 kmh 29.92 in1013.2 mb 0.00 in0.0 mm 0.00 in/hr0.0 mm/hr 0.19 in4.8 mm
07:40 PM 27.9°F-2.3°C 14.6°F-9.7°C 57% Calm Calm -- 29.93 in1013.5 mb 0.00 in0.0 mm 0.00 in/hr0.0 mm/hr 0.19 in4.8 mm
07:50 PM 27.8°F-2.3°C 15.3°F-9.3°C 59% Calm Calm 1.0 mph1.6 kmh 29.93 in1013.5 mb 0.00 in0.0 mm 0.00 in/hr0.0 mm/hr 0.19 in4.8 mm
08:00 PM 27.6°F-2.4°C 16.3°F-8.7°C 62% Calm Calm -- 29.94 in1013.9 mb 0.00 in0.0 mm 0.00 in/hr0.0 mm/hr 0.19 in4.8 mm
08:10 PM 27.5°F-2.5°C 16.9°F-8.4°C 64% Calm Calm -- 29.94 in1013.9 mb 0.00 in0.0 mm 0.00 in/hr0.0 mm/hr 0.19 in4.8 mm
08:20 PM 27.3°F-2.6°C 16.0°F-8.9°C 62% 2.0 mph ENE3.2 kmh ENE 5.0 mph8.0 kmh 29.95 in1014.2 mb 0.00 in0.0 mm 0.00 in/hr0.0 mm/hr 0.19 in4.8 mm
08:30 PM 27.3°F-2.6°C 15.2°F-9.3°C 60% Calm Calm 2.0 mph3.2 kmh 29.95 in1014.2 mb 0.00 in0.0 mm 0.00 in/hr0.0 mm/hr 0.19 in4.8 mm
08:40 PM 27.3°F-2.6°C 15.2°F-9.3°C 60% Calm Calm 1.0 mph1.6 kmh 29.95 in1014.2 mb 0.00 in0.0 mm 0.00 in/hr0.0 mm/hr 0.19 in4.8 mm
08:50 PM 27.4°F-2.6°C 17.2°F-8.2°C 65% Calm Calm -- 29.95 in1014.2 mb 0.00 in0.0 mm 0.00 in/hr0.0 mm/hr 0.19 in4.8 mm
09:00 PM 27.2°F-2.7°C 15.9°F-8.9°C 62% 1.0 mph NE1.6 kmh NE 2.0 mph3.2 kmh 29.95 in1014.2 mb 0.00 in0.0 mm 0.00 in/hr0.0 mm/hr 0.19 in4.8 mm
09:10 PM 27.1°F-2.7°C 14.3°F-9.8°C 58% 1.0 mph NE1.6 kmh NE 6.0 mph9.7 kmh 29.95 in1014.2 mb 0.00 in0.0 mm 0.00 in/hr0.0 mm/hr 0.19 in4.8 mm
09:20 PM 27.4°F-2.6°C 13.4°F-10.3°C 55% Calm Calm 3.0 mph4.8 kmh 29.96 in1014.6 mb 0.00 in0.0 mm 0.00 in/hr0.0 mm/hr 0.19 in4.8 mm
09:30 PM 27.5°F-2.5°C 13.4°F-10.3°C 55% 2.0 mph NE3.2 kmh NE 6.0 mph9.7 kmh 29.96 in1014.6 mb 0.00 in0.0 mm 0.00 in/hr0.0 mm/hr 0.19 in4.8 mm
09:40 PM 27.6°F-2.4°C 12.7°F-10.7°C 53% 3.0 mph NNW4.8 kmh NNW 7.0 mph11.3 kmh 29.96 in1014.6 mb 0.00 in0.0 mm 0.00 in/hr0.0 mm/hr 0.19 in4.8 mm
09:50 PM 27.7°F-2.4°C 12.8°F-10.7°C 53% 1.0 mph NNE1.6 kmh NNE 9.0 mph14.5 kmh 29.97 in1014.9 mb 0.00 in0.0 mm 0.00 in/hr0.0 mm/hr 0.19 in4.8 mm
10:00 PM 27.7°F-2.4°C 13.2°F-10.4°C 54% Calm Calm 3.0 mph4.8 kmh 29.97 in1014.9 mb 0.00 in0.0 mm 0.00 in/hr0.0 mm/hr 0.19 in4.8 mm
10:10 PM 27.7°F-2.4°C 14.0°F-10.0°C 56% Calm Calm 2.0 mph3.2 kmh 29.98 in1015.2 mb 0.00 in0.0 mm 0.00 in/hr0.0 mm/hr 0.19 in4.8 mm
10:20 PM 27.5°F-2.5°C 13.0°F-10.6°C 54% Calm Calm 4.0 mph6.4 kmh 29.98 in1015.2 mb 0.00 in0.0 mm 0.00 in/hr0.0 mm/hr 0.19 in4.8 mm
10:30 PM 27.5°F-2.5°C 13.4°F-10.3°C 55% Calm Calm 2.0 mph3.2 kmh 29.99 in1015.6 mb 0.00 in0.0 mm 0.00 in/hr0.0 mm/hr 0.19 in4.8 mm
10:40 PM 27.4°F-2.6°C 13.4°F-10.3°C 55% Calm Calm 3.0 mph4.8 kmh 29.99 in1015.6 mb 0.00 in0.0 mm 0.00 in/hr0.0 mm/hr 0.19 in4.8 mm
10:50 PM 27.4°F-2.6°C 15.3°F-9.3°C 60% 1.0 mph N1.6 kmh N 4.0 mph6.4 kmh 29.98 in1015.2 mb 0.00 in0.0 mm 0.00 in/hr0.0 mm/hr 0.19 in4.8 mm
11:00 PM 27.2°F-2.7°C 14.0°F-10.0°C 57% 1.0 mph NNE1.6 kmh NNE 7.0 mph11.3 kmh 29.97 in1014.9 mb 0.00 in0.0 mm 0.00 in/hr0.0 mm/hr 0.19 in4.8 mm
11:10 PM 27.1°F-2.7°C 13.9°F-10.1°C 57% 1.0 mph NNE1.6 kmh NNE 5.0 mph8.0 kmh 29.97 in1014.9 mb 0.00 in0.0 mm 0.00 in/hr0.0 mm/hr 0.19 in4.8 mm
11:20 PM 26.9°F-2.8°C 12.9°F-10.6°C 55% Calm Calm 11.0 mph17.7 kmh 29.98 in1015.2 mb 0.00 in0.0 mm 0.00 in/hr0.0 mm/hr 0.19 in4.8 mm
11:30 PM 26.8°F-2.9°C 12.8°F-10.7°C 55% Calm Calm 3.0 mph4.8 kmh 29.98 in1015.2 mb 0.00 in0.0 mm 0.00 in/hr0.0 mm/hr 0.19 in4.8 mm
11:40 PM 26.7°F-2.9°C 13.5°F-10.3°C 57% 1.0 mph NE1.6 kmh NE 5.0 mph8.0 kmh 29.98 in1015.2 mb 0.00 in0.0 mm 0.00 in/hr0.0 mm/hr 0.19 in4.8 mm
11:50 PM 26.5°F-3.1°C 12.1°F-11.1°C 54% 1.0 mph N1.6 kmh N 8.0 mph12.9 kmh 29.98 in1015.2 mb 0.00 in0.0 mm 0.00 in/hr0.0 mm/hr 0.19 in4.8 mm